Time;durP1;ratioP1;P1;durP2;ratioP2;P2;SDS_P1;SDS_P2;PMS_P1;PMS_P2;Temp;Humidity;BMP_temperature;BMP_pressure;BME280_temperature;BME280_humidity;BME280_pressure;Samples;Min_cycle;Max_cycle;Signal;HPM_P1;HPM_P2
2021/08/03 00:00:21;;;;;;;;;;;;;;;16.24;100.00;100329.97;5061296;28;19927;-65
2021/08/03 00:03:06;;;;;;;;;;;;;;;16.23;100.00;100331.00;5061107;28;19962;-65
2021/08/03 00:05:50;;;;;;;;;;;;;;;16.26;100.00;100329.81;5075269;28;19927;-65
2021/08/03 00:08:35;;;;;;;;;;;;;;;16.26;100.00;100327.94;5061202;28;19923;-64
2021/08/03 00:11:19;;;;;;;;;;;;;;;16.25;100.00;100322.72;5060942;28;19923;-65
2021/08/03 00:14:03;;;;;;;;;;;;;;;16.23;100.00;100320.22;5060817;28;19969;-65
2021/08/03 00:16:47;;;;;;;;;;;;;;;16.19;100.00;100321.59;5061138;28;19923;-65
2021/08/03 00:19:31;;;;;;;;;;;;;;;16.14;100.00;100326.69;5060917;28;20069;-65
2021/08/03 00:22:15;;;;;;;;;;;;;;;16.14;100.00;100315.94;5060971;28;19924;-65
2021/08/03 00:24:59;;;;;;;;;;;;;;;16.16;100.00;100313.88;5060698;28;19924;-65
2021/08/03 00:27:43;;;;;;;;;;;;;;;16.17;100.00;100314.75;5060724;28;19927;-65
2021/08/03 00:30:27;;;;;;;;;;;;;;;16.18;100.00;100321.78;5061196;28;19923;-65
2021/08/03 00:33:11;;;;;;;;;;;;;;;16.19;100.00;100323.47;5060674;28;19970;-65
2021/08/03 00:35:55;;;;;;;;;;;;;;;16.21;100.00;100324.97;5060552;28;19935;-65
2021/08/03 00:38:39;;;;;;;;;;;;;;;16.20;100.00;100323.28;5060688;28;19923;-65
2021/08/03 00:41:25;;;;;;;;;;;;;;;16.18;100.00;100317.22;5074643;28;20387;-64
2021/08/03 00:44:08;;;;;;;;;;;;;;;16.13;100.00;100311.56;5060643;28;19927;-65
2021/08/03 00:46:52;;;;;;;;;;;;;;;16.14;100.00;100315.94;5060348;28;19987;-65
2021/08/03 00:49:36;;;;;;;;;;;;;;;16.11;100.00;100321.66;5060407;28;19930;-65
2021/08/03 00:52:21;;;;;;;;;;;;;;;16.14;100.00;100315.06;5074541;28;19985;-65
2021/08/03 00:55:05;;;;;;;;;;;;;;;16.13;100.00;100314.25;5060383;28;19923;-65
2021/08/03 00:57:48;;;;;;;;;;;;;;;16.15;100.00;100328.34;5074633;28;19923;-65
2021/08/03 01:00:33;;;;;;;;;;;;;;;16.14;100.00;100317.75;5060272;28;19959;-65
2021/08/03 01:03:16;;;;;;;;;;;;;;;16.15;100.00;100317.59;5074425;28;19923;-65
2021/08/03 01:06:02;;;;;;;;;;;;;;;16.16;100.00;100313.06;5060005;28;19942;-65
2021/08/03 01:08:50;;;;;;;;;;;;;;;16.14;100.00;100313.25;5059856;28;19924;-65
2021/08/03 01:11:53;;;;;;;;;;;;;;;16.13;100.00;100321.47;5060153;28;19924;-65
2021/08/03 01:14:46;;;;;;;;;;;;;;;16.12;100.00;100312.59;5074176;28;19939;-65
2021/08/03 01:17:33;;;;;;;;;;;;;;;16.10;100.00;100314.63;5059939;28;20388;-65
2021/08/03 01:20:27;;;;;;;;;;;;;;;16.15;100.00;100314.91;5074019;28;19923;-65
2021/08/03 01:23:14;;;;;;;;;;;;;;;16.14;100.00;100315.94;5059908;28;19970;-65
2021/08/03 01:26:06;;;;;;;;;;;;;;;16.15;100.00;100306.84;5074013;28;20036;-65
2021/08/03 01:28:51;;;;;;;;;;;;;;;16.15;100.00;100314.91;5059500;28;20014;-65
2021/08/03 01:31:41;;;;;;;;;;;;;;;16.12;100.00;100315.28;5073543;28;20369;-65
2021/08/03 01:34:25;;;;;;;;;;;;;;;16.10;100.00;100303.88;5059569;28;19923;-65
2021/08/03 01:37:09;;;;;;;;;;;;;;;16.03;100.00;100300.19;5059502;28;19923;-65
2021/08/03 01:39:53;;;;;;;;;;;;;;;16.04;100.00;100307.25;5059116;28;20064;-65
2021/08/03 01:42:38;;;;;;;;;;;;;;;16.04;100.00;100312.63;5059597;28;20403;-65
2021/08/03 01:45:22;;;;;;;;;;;;;;;16.00;100.00;100307.78;5059283;28;19962;-66
2021/08/03 01:48:07;;;;;;;;;;;;;;;15.92;100.00;100307.81;5074457;28;20015;-65
2021/08/03 01:50:53;;;;;;;;;;;;;;;15.98;100.00;100310.63;5059231;28;19927;-65
2021/08/03 01:53:37;;;;;;;;;;;;;;;15.93;100.00;100302.28;5059204;28;20396;-65
2021/08/03 01:56:24;;;;;;;;;;;;;;;15.90;100.00;100296.41;5059062;28;19927;-65
2021/08/03 01:59:08;;;;;;;;;;;;;;;15.85;100.00;100299.63;5059007;28;19923;-64
2021/08/03 02:01:52;;;;;;;;;;;;;;;15.77;100.00;100297.00;5059083;28;20056;-65
2021/08/03 02:04:36;;;;;;;;;;;;;;;15.75;100.00;100298.19;5073386;28;19923;-65
2021/08/03 02:07:20;;;;;;;;;;;;;;;15.72;100.00;100294.00;5058483;28;19970;-65
2021/08/03 02:10:04;;;;;;;;;;;;;;;15.68;100.00;100298.03;5059110;28;19923;-65
2021/08/03 02:12:49;;;;;;;;;;;;;;;15.69;100.00;100299.75;5058540;28;19939;-65
2021/08/03 02:15:32;;;;;;;;;;;;;;;15.63;100.00;100301.44;5059054;28;20371;-66
2021/08/03 02:18:16;;;;;;;;;;;;;;;15.58;100.00;100292.03;5058692;28;20324;-65
2021/08/03 02:21:00;;;;;;;;;;;;;;;15.56;100.00;100287.03;5058692;28;19923;-65
2021/08/03 02:23:44;;;;;;;;;;;;;;;15.57;100.00;100283.31;5058580;28;19924;-65
2021/08/03 02:26:28;;;;;;;;;;;;;;;15.49;100.00;100283.38;5072328;28;20429;-65
2021/08/03 02:29:12;;;;;;;;;;;;;;;15.50;100.00;100282.38;5058554;28;20027;-65
2021/08/03 02:31:59;;;;;;;;;;;;;;;15.49;100.00;100291.44;5058475;28;19923;-65
2021/08/03 02:34:46;;;;;;;;;;;;;;;15.42;100.00;100290.47;5058446;28;20392;-65
2021/08/03 02:37:31;;;;;;;;;;;;;;;15.39;100.00;100286.28;5073163;28;19924;-65
2021/08/03 02:40:15;;;;;;;;;;;;;;;15.39;100.00;100285.44;5058025;28;19923;-65
2021/08/03 02:42:58;;;;;;;;;;;;;;;15.39;100.00;100277.38;5058310;28;19988;-65
2021/08/03 02:45:42;;;;;;;;;;;;;;;15.41;100.00;100278.03;5058227;28;20418;-65
2021/08/03 02:48:26;;;;;;;;;;;;;;;15.39;100.00;100270.16;5058470;28;19966;-65
2021/08/03 02:51:10;;;;;;;;;;;;;;;15.39;100.00;100275.53;5057437;28;20404;-65
2021/08/03 02:53:54;;;;;;;;;;;;;;;15.36;100.00;100273.19;5057953;28;19974;-65
2021/08/03 02:56:38;;;;;;;;;;;;;;;15.34;100.00;100272.53;5057878;28;20001;-66
2021/08/03 02:59:22;;;;;;;;;;;;;;;15.37;100.00;100276.69;5057869;28;19923;-65
2021/08/03 03:02:08;;;;;;;;;;;;;;;15.30;100.00;100271.19;5058189;28;20285;-65
2021/08/03 03:04:52;;;;;;;;;;;;;;;15.31;100.00;100272.03;5058038;28;19924;-65
2021/08/03 03:07:37;;;;;;;;;;;;;;;15.29;100.00;100263.31;5071786;28;19927;-65
2021/08/03 03:10:23;;;;;;;;;;;;;;;15.27;100.00;100270.66;5057772;28;19927;-65
2021/08/03 03:13:33;;;;;;;;;;;;;;;15.24;100.00;100268.34;5057838;28;19939;-65
2021/08/03 03:16:17;;;;;;;;;;;;;;;15.26;100.00;100258.25;5056901;28;19963;-65
2021/08/03 03:19:01;;;;;;;;;;;;;;;15.28;100.00;100256.22;5057649;28;20011;-65
2021/08/03 03:21:46;;;;;;;;;;;;;;;15.28;100.00;100250.84;5057787;28;20286;-65
2021/08/03 03:24:30;;;;;;;;;;;;;;;15.25;100.00;100257.44;5057904;28;19923;-65
2021/08/03 03:27:14;;;;;;;;;;;;;;;15.29;100.00;100255.25;5057483;28;19928;-65
2021/08/03 03:29:58;;;;;;;;;;;;;;;15.26;100.00;100239.44;5057821;28;19923;-65
2021/08/03 03:32:43;;;;;;;;;;;;;;;15.26;100.00;100237.63;5057541;28;19939;-65
2021/08/03 03:35:27;;;;;;;;;;;;;;;15.22;100.00;100243.50;5057604;28;20062;-65
2021/08/03 03:38:11;;;;;;;;;;;;;;;15.18;100.00;100250.22;5057761;28;19965;-65
2021/08/03 03:40:55;;;;;;;;;;;;;;;15.15;100.00;100250.56;5057969;28;20017;-65
2021/08/03 03:43:39;;;;;;;;;;;;;;;15.14;100.00;100248.91;5057717;28;19939;-65
2021/08/03 03:46:24;;;;;;;;;;;;;;;15.14;100.00;100259.66;5057407;28;19967;-65
2021/08/03 03:49:12;;;;;;;;;;;;;;;15.16;100.00;100254.94;5057928;28;20281;-65
2021/08/03 03:51:56;;;;;;;;;;;;;;;15.18;100.00;100258.28;5057281;28;19923;-65
2021/08/03 03:54:40;;;;;;;;;;;;;;;15.23;100.00;100254.09;5071400;28;19973;-65
2021/08/03 03:57:24;;;;;;;;;;;;;;;15.19;100.00;100255.44;5057542;28;19969;-64
2021/08/03 04:00:08;;;;;;;;;;;;;;;15.18;100.00;100245.69;5071678;28;19923;-65
2021/08/03 04:02:52;;;;;;;;;;;;;;;15.25;100.00;100253.91;5060401;28;19927;-65
2021/08/03 04:05:36;;;;;;;;;;;;;;;15.28;100.00;100245.47;5061103;28;19924;-64
2021/08/03 04:08:19;;;;;;;;;;;;;;;15.32;100.00;100253.03;5061216;28;19962;-65
2021/08/03 04:11:04;;;;;;;;;;;;;;;15.39;100.00;100245.97;5075048;28;20331;-65
2021/08/03 04:13:49;;;;;;;;;;;;;;;15.41;100.00;100243.13;5061177;28;19923;-65
2021/08/03 04:16:33;;;;;;;;;;;;;;;15.41;100.00;100240.44;5060939;28;19923;-66
2021/08/03 04:19:17;;;;;;;;;;;;;;;15.37;100.00;100245.31;5061040;28;20277;-65
2021/08/03 04:22:01;;;;;;;;;;;;;;;15.35;100.00;100246.50;5060952;28;19986;-65
2021/08/03 04:24:45;;;;;;;;;;;;;;;15.39;100.00;100242.47;5060848;28;20008;-65
2021/08/03 04:27:29;;;;;;;;;;;;;;;15.36;100.00;100242.78;5060486;28;20051;-65
2021/08/03 04:30:14;;;;;;;;;;;;;;;15.37;100.00;100244.47;5060821;28;20419;-65
2021/08/03 04:32:57;;;;;;;;;;;;;;;15.33;100.00;100244.00;5060657;28;19982;-65
2021/08/03 04:35:41;;;;;;;;;;;;;;;15.34;100.00;100244.81;5060683;28;20447;-65
2021/08/03 04:38:26;;;;;;;;;;;;;;;15.35;100.00;100241.13;5060963;28;19923;-65
2021/08/03 04:41:09;;;;;;;;;;;;;;;15.37;100.00;100231.03;5074594;28;19923;-65
2021/08/03 04:43:53;;;;;;;;;;;;;;;15.40;100.00;100230.72;5075730;28;19923;-65
2021/08/03 04:46:37;;;;;;;;;;;;;;;15.43;100.00;100233.84;5060314;28;20422;-65
2021/08/03 04:49:21;;;;;;;;;;;;;;;15.50;100.00;100221.41;5060432;28;20042;-65
2021/08/03 04:52:05;;;;;;;;;;;;;;;15.52;100.00;100224.75;5060101;28;19943;-65
2021/08/03 04:54:51;;;;;;;;;;;;;;;15.52;100.00;100232.81;5074814;28;19927;-65
2021/08/03 04:57:36;;;;;;;;;;;;;;;15.54;100.00;100229.94;5074405;28;20019;-65
2021/08/03 05:00:23;;;;;;;;;;;;;;;15.56;100.00;100233.28;5074343;28;20445;-65
2021/08/03 05:03:07;;;;;;;;;;;;;;;15.56;100.00;100238.66;5060671;28;20357;-66
2021/08/03 05:05:51;;;;;;;;;;;;;;;15.61;100.00;100226.38;5062043;28;19927;-65
2021/08/03 05:08:35;;;;;;;;;;;;;;;15.66;100.00;100227.50;5060139;28;20004;-65
2021/08/03 05:11:19;;;;;;;;;;;;;;;15.74;100.00;100223.97;5059980;28;20007;-65
2021/08/03 05:14:03;;;;;;;;;;;;;;;15.81;100.00;100228.44;5059083;28;20285;-65
2021/08/03 05:16:47;;;;;;;;;;;;;;;15.91;100.00;100225.50;5060086;28;20335;-65
2021/08/03 05:19:31;;;;;;;;;;;;;;;16.00;100.00;100219.91;5060115;28;20304;-66
2021/08/03 05:22:15;;;;;;;;;;;;;;;16.10;100.00;100223.19;5073774;28;20300;-65
2021/08/03 05:24:59;;;;;;;;;;;;;;;16.17;100.00;100217.91;5059847;28;20272;-65
2021/08/03 05:27:42;;;;;;;;;;;;;;;16.23;100.00;100215.31;5059427;28;20249;-65
2021/08/03 05:30:26;;;;;;;;;;;;;;;16.33;100.00;100209.69;5073789;28;19931;-66
2021/08/03 05:33:10;;;;;;;;;;;;;;;16.41;100.00;100210.50;5059343;28;19923;-65
2021/08/03 05:35:54;;;;;;;;;;;;;;;16.50;100.00;100214.75;5059249;28;19962;-66
2021/08/03 05:38:38;;;;;;;;;;;;;;;16.56;100.00;100207.84;5059550;28;19924;-65
2021/08/03 05:41:22;;;;;;;;;;;;;;;16.67;100.00;100204.69;5059270;28;20392;-65
2021/08/03 05:44:06;;;;;;;;;;;;;;;16.68;100.00;100211.75;5059380;28;19924;-65
2021/08/03 05:46:50;;;;;;;;;;;;;;;16.76;100.00;100208.94;5058942;28;19963;-65
2021/08/03 05:49:34;;;;;;;;;;;;;;;16.80;100.00;100221.03;5059387;28;20029;-66
2021/08/03 05:52:18;;;;;;;;;;;;;;;16.84;100.00;100220.47;5059046;28;20020;-66
2021/08/03 05:55:03;;;;;;;;;;;;;;;16.93;100.00;100222.06;5059590;28;19970;-66
2021/08/03 05:57:47;;;;;;;;;;;;;;;16.93;100.00;100224.75;5059303;28;19924;-68
2021/08/03 06:00:31;;;;;;;;;;;;;;;17.00;100.00;100212.19;5059180;28;19966;-68
2021/08/03 06:03:14;;;;;;;;;;;;;;;17.00;100.00;100222.16;5059075;28;19922;-67
2021/08/03 06:05:58;;;;;;;;;;;;;;;17.14;100.00;100226.69;5072958;28;19962;-68
2021/08/03 06:08:43;;;;;;;;;;;;;;;17.09;100.00;100234.50;5058745;28;19923;-67
2021/08/03 06:11:27;;;;;;;;;;;;;;;17.13;100.00;100233.09;5059182;28;19939;-67
2021/08/03 06:14:11;;;;;;;;;;;;;;;17.24;100.00;100228.06;5058555;28;19946;-67
2021/08/03 06:16:56;;;;;;;;;;;;;;;17.22;100.00;100237.34;5058484;28;20493;-68
2021/08/03 06:19:40;;;;;;;;;;;;;;;17.26;100.00;100236.81;5058709;28;20016;-67
2021/08/03 06:22:24;;;;;;;;;;;;;;;17.33;100.00;100229.66;5074072;28;19999;-67
2021/08/03 06:25:09;;;;;;;;;;;;;;;17.37;100.00;100236.34;5058221;28;19970;-68
2021/08/03 06:27:53;;;;;;;;;;;;;;;17.45;100.00;100244.34;5058610;28;20384;-67
2021/08/03 06:30:38;;;;;;;;;;;;;;;17.32;100.00;100233.34;5058908;28;19990;-67
2021/08/03 06:33:22;;;;;;;;;;;;;;;17.42;100.00;100241.19;5072975;28;19923;-68
2021/08/03 06:36:06;;;;;;;;;;;;;;;17.32;100.00;100238.72;5058322;28;19962;-67
2021/08/03 06:38:50;;;;;;;;;;;;;;;17.17;100.00;100256.78;5058489;28;20375;-68
2021/08/03 06:41:35;;;;;;;;;;;;;;;17.14;100.00;100251.78;5058434;28;19922;-67
2021/08/03 06:44:23;;;;;;;;;;;;;;;17.12;100.00;100259.22;5058205;28;19923;-68
2021/08/03 06:47:07;;;;;;;;;;;;;;;17.23;100.00;100256.03;5058234;28;19927;-67
2021/08/03 06:49:51;;;;;;;;;;;;;;;17.25;100.00;100259.38;5058323;28;19923;-68
2021/08/03 06:52:35;;;;;;;;;;;;;;;17.09;100.00;100264.94;5058040;28;19924;-68
2021/08/03 06:55:22;;;;;;;;;;;;;;;16.98;100.00;100268.09;5058580;28;20388;-68
2021/08/03 06:58:06;;;;;;;;;;;;;;;16.88;100.00;100281.00;5072280;28;20396;-67
2021/08/03 07:00:50;;;;;;;;;;;;;;;16.66;100.00;100279.19;5072104;28;19923;-66
2021/08/03 07:03:38;;;;;;;;;;;;;;;16.34;100.00;100278.59;5072356;28;19938;-67
2021/08/03 07:06:22;;;;;;;;;;;;;;;15.99;100.00;100284.59;5072147;28;19928;-65
2021/08/03 07:09:07;;;;;;;;;;;;;;;15.80;100.00;100295.81;5072220;28;19936;-65
2021/08/03 07:11:52;;;;;;;;;;;;;;;15.74;100.00;100285.78;5058093;28;20277;-66
2021/08/03 07:14:36;;;;;;;;;;;;;;;15.70;100.00;100284.44;5058237;28;20296;-65
2021/08/03 07:17:20;;;;;;;;;;;;;;;15.63;100.00;100277.25;5057939;28;20323;-66
2021/08/03 07:20:04;;;;;;;;;;;;;;;15.68;100.00;100264.97;5072147;28;19982;-66
2021/08/03 07:22:48;;;;;;;;;;;;;;;15.79;100.00;100270.78;5058022;28;20217;-66
2021/08/03 07:25:32;;;;;;;;;;;;;;;15.84;100.00;100275.59;5057952;28;19923;-66
2021/08/03 07:28:17;;;;;;;;;;;;;;;15.81;100.00;100279.50;5057933;28;19928;-66
2021/08/03 07:31:01;;;;;;;;;;;;;;;15.82;100.00;100272.25;5071750;28;19923;-66
2021/08/03 07:33:45;;;;;;;;;;;;;;;15.77;100.00;100280.84;5071651;28;20380;-66
2021/08/03 07:36:29;;;;;;;;;;;;;;;15.80;100.00;100291.28;5058590;28;19923;-66
2021/08/03 07:39:13;;;;;;;;;;;;;;;15.80;100.00;100283.22;5062106;28;19938;-66
2021/08/03 07:41:58;;;;;;;;;;;;;;;15.85;100.00;100293.44;5075910;28;20376;-66
2021/08/03 07:44:43;;;;;;;;;;;;;;;15.79;100.00;100316.50;5062417;28;19970;-66
2021/08/03 07:47:27;;;;;;;;;;;;;;;15.68;100.00;100324.91;5061517;28;20293;-66
2021/08/03 07:50:11;;;;;;;;;;;;;;;15.66;100.00;100336.88;5061659;28;19927;-66
2021/08/03 07:52:55;;;;;;;;;;;;;;;15.57;100.00;100337.06;5061579;28;19965;-65
2021/08/03 07:55:39;;;;;;;;;;;;;;;15.51;100.00;100343.16;5061378;28;19978;-65
2021/08/03 07:58:23;;;;;;;;;;;;;;;15.44;100.00;100353.75;5061246;28;20335;-65
2021/08/03 08:01:08;;;;;;;;;;;;;;;15.36;100.00;100343.03;5075563;28;20388;-65
2021/08/03 08:03:52;;;;;;;;;;;;;;;15.33;100.00;100339.84;5061353;28;19927;-65
2021/08/03 08:06:36;;;;;;;;;;;;;;;15.28;100.00;100326.91;5060847;28;20001;-64
2021/08/03 08:09:20;;;;;;;;;;;;;;;15.34;100.00;100314.66;5061540;28;20020;-65
2021/08/03 08:12:03;;;;;;;;;;;;;;;15.37;100.00;100333.13;5061204;28;19924;-65
2021/08/03 08:14:48;;;;;;;;;;;;;;;15.26;100.00;100337.00;5074978;28;19966;-63
2021/08/03 08:17:31;;;;;;;;;;;;;;;15.24;100.00;100335.47;5074931;28;20080;-65
2021/08/03 08:20:15;;;;;;;;;;;;;;;15.28;100.00;100331.44;5060954;28;19967;-65
2021/08/03 08:22:59;;;;;;;;;;;;;;;15.36;100.00;100326.06;5060917;28;20281;-64
2021/08/03 08:25:43;;;;;;;;;;;;;;;15.39;100.00;100328.44;5075811;28;19923;-65
2021/08/03 08:28:28;;;;;;;;;;;;;;;15.45;100.00;100322.34;5060565;28;20038;-65
2021/08/03 08:31:12;;;;;;;;;;;;;;;15.54;100.00;100332.06;5074684;28;19957;-65
2021/08/03 08:33:56;;;;;;;;;;;;;;;15.49;100.00;100339.81;5060692;28;20323;-65
2021/08/03 08:36:41;;;;;;;;;;;;;;;15.53;100.00;100341.13;5075747;28;20386;-65
2021/08/03 08:39:24;;;;;;;;;;;;;;;15.56;100.00;100338.09;5074786;28;20289;-65
2021/08/03 08:42:08;;;;;;;;;;;;;;;15.58;100.00;100335.03;5075002;28;19958;-65
2021/08/03 08:44:52;;;;;;;;;;;;;;;15.54;100.00;100321.31;5060652;28;20340;-64
2021/08/03 08:47:36;;;;;;;;;;;;;;;15.54;100.00;100310.56;5073645;28;19970;-65
2021/08/03 08:50:21;;;;;;;;;;;;;;;15.52;100.00;100301.84;5074931;28;19922;-65
2021/08/03 08:53:05;;;;;;;;;;;;;;;15.55;100.00;100298.78;5059920;28;19923;-64
2021/08/03 08:55:48;;;;;;;;;;;;;;;15.53;100.00;100309.72;5060244;28;20269;-65
2021/08/03 08:58:35;;;;;;;;;;;;;;;15.52;100.00;100317.97;5060628;28;20289;-64
2021/08/03 09:01:19;;;;;;;;;;;;;;;15.50;100.00;100320.00;5060483;28;19962;-64
2021/08/03 09:04:04;;;;;;;;;;;;;;;15.47;100.00;100328.38;5059964;28;20285;-65
2021/08/03 09:06:59;;;;;;;;;;;;;;;15.47;100.00;100352.56;5074050;28;19935;-62
2021/08/03 09:09:44;;;;;;;;;;;;;;;15.55;100.00;100339.09;5059852;28;20399;-64
2021/08/03 09:12:32;;;;;;;;;;;;;;;15.63;100.00;100337.19;5073981;28;19923;-65
2021/08/03 09:15:19;;;;;;;;;;;;;;;15.64;100.00;100331.66;5074028;28;19923;-65
2021/08/03 09:18:17;;;;;;;;;;;;;;;15.75;100.00;100325.91;5074390;28;19928;-64
2021/08/03 09:21:01;;;;;;;;;;;;;;;15.78;100.00;100336.28;5059624;28;19923;-65
2021/08/03 09:23:47;;;;;;;;;;;;;;;15.79;100.00;100329.94;5059885;28;19923;-65
2021/08/03 09:26:40;;;;;;;;;;;;;;;15.81;100.00;100316.28;5074524;28;20041;-64
2021/08/03 09:29:24;;;;;;;;;;;;;;;15.84;100.00;100318.63;5074581;28;19923;-65
2021/08/03 09:32:08;;;;;;;;;;;;;;;15.77;100.00;100310.44;5073706;28;19970;-64
2021/08/03 09:35:09;;;;;;;;;;;;;;;15.69;100.00;100298.91;5073680;28;19927;-65
2021/08/03 09:37:53;;;;;;;;;;;;;;;15.71;100.00;100280.72;5059827;28;20345;-65
2021/08/03 09:40:37;;;;;;;;;;;;;;;15.70;100.00;100284.44;5059442;28;20289;-64
2021/08/03 09:43:27;;;;;;;;;;;;;;;15.83;100.00;100282.84;5059393;28;19923;-65
2021/08/03 09:46:11;;;;;;;;;;;;;;;15.81;100.00;100286.72;5073157;28;19973;-65
2021/08/03 09:48:55;;;;;;;;;;;;;;;15.70;100.00;100290.66;5073393;28;19966;-65
2021/08/03 09:51:39;;;;;;;;;;;;;;;15.77;100.00;100286.22;5059134;28;19923;-65
2021/08/03 09:54:23;;;;;;;;;;;;;;;15.89;100.00;100268.72;5059179;28;19923;-65
2021/08/03 09:57:22;;;;;;;;;;;;;;;15.96;100.00;100279.59;5072795;28;20021;-65
2021/08/03 10:00:26;;;;;;;;;;;;;;;16.05;100.00;100273.97;5074031;28;19923;-65
2021/08/03 10:03:10;;;;;;;;;;;;;;;16.18;100.00;100271.50;5071455;28;19969;-65
2021/08/03 10:05:54;;;;;;;;;;;;;;;16.34;100.00;100268.69;5058387;28;19967;-65
2021/08/03 10:08:37;;;;;;;;;;;;;;;16.72;100.00;100262.34;5073842;28;19966;-65
2021/08/03 10:11:22;;;;;;;;;;;;;;;16.96;100.00;100254.00;5072618;28;20387;-66
2021/08/03 10:14:06;;;;;;;;;;;;;;;17.55;100.00;100250.25;5072821;28;19922;-65
2021/08/03 10:16:51;;;;;;;;;;;;;;;18.30;100.00;100251.50;5058669;28;20305;-65
2021/08/03 10:19:36;;;;;;;;;;;;;;;18.82;100.00;100246.53;5058741;28;20343;-66
2021/08/03 10:22:24;;;;;;;;;;;;;;;19.79;100.00;100247.03;5072570;28;19965;-66
2021/08/03 10:25:09;;;;;;;;;;;;;;;20.40;100.00;100237.00;5072799;28;19923;-66
2021/08/03 10:27:53;;;;;;;;;;;;;;;21.32;100.00;100232.09;5073232;28;19927;-66
2021/08/03 10:30:38;;;;;;;;;;;;;;;21.74;96.85;100234.22;5073510;28;19923;-66
2021/08/03 10:33:40;;;;;;;;;;;;;;;22.61;91.70;100213.38;5073329;28;19989;-66
2021/08/03 10:36:36;;;;;;;;;;;;;;;22.00;81.02;100223.19;5073683;28;19938;-66
2021/08/03 10:39:20;;;;;;;;;;;;;;;21.92;86.88;100222.63;5072421;28;19923;-66
2021/08/03 10:42:06;;;;;;;;;;;;;;;23.20;78.65;100215.50;5071394;28;20508;-66
2021/08/03 10:44:52;;;;;;;;;;;;;;;24.81;70.18;100214.22;5073154;28;20411;-66
2021/08/03 10:47:41;;;;;;;;;;;;;;;26.31;66.91;100217.38;5073421;28;20242;-67
2021/08/03 10:50:32;;;;;;;;;;;;;;;26.39;64.21;100215.09;5072330;28;19927;-67
2021/08/03 10:53:16;;;;;;;;;;;;;;;25.78;59.06;100212.28;5072346;28;19940;-67
2021/08/03 10:56:00;;;;;;;;;;;;;;;25.72;57.30;100205.06;5072206;28;20023;-67
2021/08/03 10:58:44;;;;;;;;;;;;;;;25.25;59.31;100216.34;5058332;28;19962;-67
2021/08/03 11:01:42;;;;;;;;;;;;;;;24.01;63.33;100204.00;5072242;28;20322;-67
2021/08/03 11:04:51;;;;;;;;;;;;;;;23.54;63.79;100204.00;5057749;28;19939;-67
2021/08/03 11:07:36;;;;;;;;;;;;;;;23.53;65.35;100210.53;5073896;28;19977;-67
2021/08/03 11:10:21;;;;;;;;;;;;;;;23.85;65.56;100199.19;5057811;28;20329;-66
2021/08/03 11:13:05;;;;;;;;;;;;;;;24.51;64.22;100192.47;5071663;28;19923;-67
2021/08/03 11:15:49;;;;;;;;;;;;;;;25.03;62.83;100202.47;5057756;28;20023;-67
2021/08/03 11:18:42;;;;;;;;;;;;;;;25.92;60.38;100201.94;5057559;28;19993;-67
2021/08/03 11:21:27;;;;;;;;;;;;;;;26.04;55.77;100194.50;5057539;28;19970;-67
2021/08/03 11:24:14;;;;;;;;;;;;;;;24.81;59.46;100193.22;5071652;28;20289;-67
2021/08/03 11:26:58;;;;;;;;;;;;;;;24.73;57.77;100188.13;5057730;28;20066;-67
2021/08/03 11:29:42;;;;;;;;;;;;;;;24.61;60.81;100191.94;5057731;28;19927;-67
2021/08/03 11:32:26;;;;;;;;;;;;;;;24.49;60.55;100185.63;5057445;28;20284;-67
2021/08/03 11:35:10;;;;;;;;;;;;;;;24.08;59.94;100191.94;5057714;28;20364;-67
2021/08/03 11:37:54;;;;;;;;;;;;;;;23.37;61.86;100200.25;5057938;28;19922;-67
2021/08/03 11:40:38;;;;;;;;;;;;;;;23.90;62.18;100161.22;5057614;28;19966;-67
2021/08/03 11:43:25;;;;;;;;;;;;;;;22.72;66.39;100177.28;5057906;28;20029;-67
2021/08/03 11:46:08;;;;;;;;;;;;;;;22.55;68.82;100181.66;5057773;28;20280;-67
2021/08/03 11:49:04;;;;;;;;;;;;;;;22.40;69.28;100167.56;5057536;28;20375;-67
2021/08/03 11:51:49;;;;;;;;;;;;;;;22.72;67.01;100158.28;5057392;28;19974;-67
2021/08/03 11:54:33;;;;;;;;;;;;;;;23.26;68.37;100157.47;5057709;28;20395;-67
2021/08/03 11:57:24;;;;;;;;;;;;;;;23.82;65.82;100153.34;5071308;28;19946;-68
2021/08/03 12:00:18;;;;;;;;;;;;;;;23.69;63.20;100156.28;5071986;28;20038;-67
2021/08/03 12:03:02;;;;;;;;;;;;;;;23.66;64.26;100150.47;5057470;28;19943;-67
2021/08/03 12:05:46;;;;;;;;;;;;;;;23.38;64.97;100158.38;5057141;28;19923;-67
2021/08/03 12:08:33;;;;;;;;;;;;;;;23.84;66.80;100134.91;5057159;28;19928;-67
2021/08/03 12:11:23;;;;;;;;;;;;;;;24.02;66.14;100137.56;5057353;28;20281;-68
2021/08/03 12:14:09;;;;;;;;;;;;;;;23.78;63.32;100133.13;5057123;28;19923;-68
2021/08/03 12:16:54;;;;;;;;;;;;;;;24.52;61.85;100127.91;5071202;28;20384;-68
2021/08/03 12:19:38;;;;;;;;;;;;;;;23.54;63.61;100138.69;5057535;28;19923;-67
2021/08/03 12:22:25;;;;;;;;;;;;;;;23.79;65.15;100115.72;5071870;28;20034;-67
2021/08/03 12:25:09;;;;;;;;;;;;;;;24.67;60.60;100112.75;5074674;28;19923;-67
2021/08/03 12:27:55;;;;;;;;;;;;;;;24.16;59.94;100111.78;5060751;28;19927;-67
2021/08/03 12:30:39;;;;;;;;;;;;;;;24.38;61.27;100099.25;5060794;28;19922;-68
2021/08/03 12:33:30;;;;;;;;;;;;;;;23.54;60.48;100117.75;5060878;28;20035;-67
2021/08/03 12:36:15;;;;;;;;;;;;;;;23.04;63.17;100116.28;5060754;28;19943;-66
2021/08/03 12:39:09;;;;;;;;;;;;;;;23.31;64.02;100109.50;5061344;28;20345;-68
2021/08/03 12:42:02;;;;;;;;;;;;;;;23.36;64.05;100104.22;5061208;28;19976;-67
2021/08/03 12:44:47;;;;;;;;;;;;;;;23.53;64.57;100085.34;5074682;28;19968;-67
2021/08/03 12:47:31;;;;;;;;;;;;;;;23.41;64.76;100093.44;5060290;28;20297;-68
2021/08/03 12:50:15;;;;;;;;;;;;;;;23.11;67.24;100092.56;5060466;28;20426;-67
2021/08/03 12:53:01;;;;;;;;;;;;;;;23.00;68.90;100093.34;5074272;28;19977;-68
2021/08/03 12:55:52;;;;;;;;;;;;;;;22.35;67.45;100104.09;5060273;28;20315;-67
2021/08/03 12:58:38;;;;;;;;;;;;;;;22.30;69.60;100112.09;5061242;28;19939;-68
2021/08/03 13:01:23;;;;;;;;;;;;;;;22.15;72.81;100098.84;5074681;28;19974;-68
2021/08/03 13:04:07;;;;;;;;;;;;;;;21.66;72.22;100103.41;5060121;28;19924;-68
2021/08/03 13:06:52;;;;;;;;;;;;;;;21.67;74.74;100103.19;5074126;28;20038;-68
2021/08/03 13:09:37;;;;;;;;;;;;;;;22.52;71.50;100095.16;5060202;28;19924;-67
2021/08/03 13:12:22;;;;;;;;;;;;;;;23.65;68.04;100092.47;5060152;28;19979;-68
2021/08/03 13:15:06;;;;;;;;;;;;;;;24.21;63.58;100095.56;5060127;28;19922;-68
2021/08/03 13:17:49;;;;;;;;;;;;;;;25.03;61.21;100087.09;5059783;28;19923;-68
2021/08/03 13:20:34;;;;;;;;;;;;;;;26.19;57.25;100071.78;5059881;28;19923;-68
2021/08/03 13:23:18;;;;;;;;;;;;;;;27.07;51.56;100071.44;5059954;28;19927;-67
2021/08/03 13:26:02;;;;;;;;;;;;;;;27.38;53.63;100065.25;5059917;28;20031;-68
2021/08/03 13:28:46;;;;;;;;;;;;;;;26.43;53.75;100085.03;5059389;28;19923;-68
2021/08/03 13:31:30;;;;;;;;;;;;;;;25.40;56.13;100078.31;5059598;28;19940;-67
2021/08/03 13:34:14;;;;;;;;;;;;;;;25.35;56.20;100074.66;5072979;28;19923;-68
2021/08/03 13:36:58;;;;;;;;;;;;;;;24.40;58.17;100081.56;5059193;28;19924;-68
2021/08/03 13:39:42;;;;;;;;;;;;;;;23.61;62.50;100080.41;5059549;28;19943;-68
2021/08/03 13:42:26;;;;;;;;;;;;;;;23.14;64.94;100083.97;5059335;28;20388;-68
2021/08/03 13:45:10;;;;;;;;;;;;;;;22.88;67.81;100089.75;5059343;28;20379;-68
2021/08/03 13:47:53;;;;;;;;;;;;;;;22.34;69.04;100094.28;5059028;28;20364;-67
2021/08/03 13:50:37;;;;;;;;;;;;;;;21.91;73.58;100096.94;5059315;28;19923;-68
2021/08/03 13:53:21;;;;;;;;;;;;;;;21.57;76.52;100121.78;5058844;28;19970;-67
2021/08/03 13:56:08;;;;;;;;;;;;;;;20.45;95.13;100139.72;5059139;28;19924;-65
2021/08/03 13:58:51;;;;;;;;;;;;;;;19.57;100.00;100128.38;5073064;28;19923;-65